Time;durP1;ratioP1;P1;durP2;ratioP2;P2;SDS_P1;SDS_P2;PMS_P1;PMS_P2;Temp;Humidity;BMP_temperature;BMP_pressure;BME280_temperature;BME280_humidity;BME280_pressure;Samples;Min_cycle;Max_cycle;Signal;HPM_P1;HPM_P2
2021/03/14 00:01:18;;;;;;;0.50;0.40;;;2.80;99.90;;;;;;4979760;28;20918;-89
2021/03/14 00:03:44;;;;;;;0.70;0.60;;;2.80;99.90;;;;;;4979854;28;20454;-89
2021/03/14 00:06:11;;;;;;;0.70;0.40;;;2.80;99.90;;;;;;4984407;28;20497;-89
2021/03/14 00:08:38;;;;;;;0.30;0.20;;;2.60;99.90;;;;;;4995209;28;20484;-91
2021/03/14 00:11:06;;;;;;;1.50;0.40;;;2.80;99.90;;;;;;4980492;28;20454;-89
2021/03/14 00:13:36;;;;;;;0.40;0.30;;;2.80;99.90;;;;;;4983624;28;20450;-91
2021/03/14 00:16:04;;;;;;;1.77;0.60;;;2.80;99.90;;;;;;4983483;28;20442;-89
2021/03/14 00:18:33;;;;;;;3.03;0.50;;;2.80;99.90;;;;;;4980618;28;20466;-92
2021/03/14 00:21:01;;;;;;;0.50;0.50;;;2.80;99.90;;;;;;4982334;28;20991;-88
2021/03/14 00:23:28;;;;;;;2.60;0.60;;;2.90;99.90;;;;;;4998201;28;20445;-88
2021/03/14 00:25:58;;;;;;;0.40;0.30;;;2.70;99.90;;;;;;4997434;28;20499;-88
2021/03/14 00:28:26;;;;;;;0.40;0.30;;;3.00;99.90;;;;;;4997319;28;20469;-91
2021/03/14 00:30:55;;;;;;;2.13;0.53;;;3.90;99.90;;;;;;4998246;28;20457;-86
2021/03/14 00:33:22;;;;;;;0.40;0.30;;;3.00;99.90;;;;;;4997475;28;20460;-87
2021/03/14 00:35:50;;;;;;;0.80;0.50;;;3.10;99.90;;;;;;4994212;28;20484;-87
2021/03/14 00:38:18;;;;;;;1.17;0.53;;;;;;;;;;4994628;28;20477;-88
2021/03/14 00:40:44;;;;;;;0.93;0.53;;;0.60;99.90;;;;;;4914332;28;20577;-87
2021/03/14 00:43:11;;;;;;;1.67;0.70;;;2.80;99.90;;;;;;4962112;28;21060;-89
2021/03/14 00:45:39;;;;;;;1.17;0.50;;;2.60;99.90;;;;;;4977917;28;20985;-89
2021/03/14 00:48:08;;;;;;;0.70;0.50;;;2.30;99.90;;;;;;4979406;28;20450;-89
2021/03/14 00:50:36;;;;;;;0.40;0.30;;;2.30;99.90;;;;;;4975005;28;20525;-88
2021/03/14 00:53:04;;;;;;;0.63;0.53;;;2.20;99.90;;;;;;4977917;28;20481;-89
2021/03/14 00:55:30;;;;;;;0.43;0.40;;;2.20;99.90;;;;;;4978282;28;20458;-88
2021/03/14 00:57:59;;;;;;;0.80;0.50;;;;;;;;;;4978495;28;20485;-88
2021/03/14 01:00:26;;;;;;;0.40;0.30;;;2.00;99.90;;;;;;4978910;28;20462;-89
2021/03/14 01:02:53;;;;;;;0.50;0.40;;;2.10;99.90;;;;;;4978755;28;20450;-90
2021/03/14 01:05:22;;;;;;;0.40;0.30;;;2.10;99.90;;;;;;4977769;28;20592;-89
2021/03/14 01:07:48;;;;;;;0.50;0.40;;;2.10;99.90;;;;;;4979051;28;20469;-89
2021/03/14 01:10:16;;;;;;;0.50;0.40;;;2.20;99.90;;;;;;4980556;28;20454;-90
2021/03/14 01:12:42;;;;;;;0.73;0.40;;;2.30;99.90;;;;;;4980154;28;20447;-90
2021/03/14 01:15:11;;;;;;;0.40;0.23;;;2.00;99.90;;;;;;4979092;28;20454;-89
2021/03/14 01:17:39;;;;;;;0.50;0.40;;;2.00;99.90;;;;;;4979395;28;20492;-88
2021/03/14 01:20:09;;;;;;;0.70;0.50;;;2.00;99.90;;;;;;4979320;28;20454;-88
2021/03/14 01:22:38;;;;;;;0.40;0.40;;;2.00;99.90;;;;;;4979938;28;20501;-86
2021/03/14 01:25:07;;;;;;;0.40;0.30;;;2.00;99.90;;;;;;4980298;28;20457;-89
2021/03/14 01:27:33;;;;;;;0.40;0.20;;;2.00;99.90;;;;;;4980200;28;20459;-87
2021/03/14 01:30:00;;;;;;;0.30;0.20;;;;;;;;;;4939447;29;20494;-87
2021/03/14 01:32:26;;;;;;;0.60;0.50;;;2.00;99.90;;;;;;4939196;29;20456;-88
2021/03/14 01:34:52;;;;;;;0.50;0.33;;;2.10;99.90;;;;;;4938069;29;20459;-88
2021/03/14 01:37:19;;;;;;;0.40;0.30;;;2.10;99.90;;;;;;4937160;29;20467;-88
2021/03/14 01:39:50;;;;;;;0.50;0.40;;;2.10;99.90;;;;;;4936701;29;20460;-89
2021/03/14 01:42:24;;;;;;;0.50;0.40;;;2.20;99.90;;;;;;4936434;29;21060;-89
2021/03/14 01:44:51;;;;;;;0.50;0.30;;;2.10;99.90;;;;;;4932591;29;20444;-89
2021/03/14 01:47:17;;;;;;;1.13;0.30;;;2.10;99.90;;;;;;4936437;29;20521;-88
2021/03/14 01:49:44;;;;;;;1.10;0.40;;;2.10;99.90;;;;;;4935352;29;20459;-86
2021/03/14 01:52:11;;;;;;;0.40;0.20;;;2.10;99.90;;;;;;4936283;29;20448;-88
2021/03/14 01:54:37;;;;;;;0.40;0.30;;;2.10;99.90;;;;;;4957540;28;20481;-88
2021/03/14 01:57:05;;;;;;;0.40;0.30;;;2.30;99.90;;;;;;4976588;28;20469;-89
2021/03/14 01:59:32;;;;;;;0.40;0.30;;;2.20;99.90;;;;;;4976838;28;20459;-88
2021/03/14 02:01:58;;;;;;;0.43;0.30;;;2.10;99.90;;;;;;4976703;28;20939;-88
2021/03/14 02:04:25;;;;;;;0.57;0.37;;;2.10;99.90;;;;;;4975927;28;20532;-87
2021/03/14 02:06:53;;;;;;;0.50;0.30;;;2.20;99.90;;;;;;4976565;28;20502;-88
2021/03/14 02:09:19;;;;;;;0.37;0.23;;;2.30;99.90;;;;;;4979005;28;20454;-86
2021/03/14 02:11:47;;;;;;;0.40;0.37;;;2.20;99.90;;;;;;4980629;28;20464;-87
2021/03/14 02:14:17;;;;;;;0.50;0.30;;;2.30;99.90;;;;;;4975569;28;20453;-88
2021/03/14 02:16:45;;;;;;;0.80;0.40;;;2.30;99.90;;;;;;4975068;28;20553;-88
2021/03/14 02:19:17;;;;;;;0.53;0.30;;;2.30;99.90;;;;;;4977537;28;20498;-88
2021/03/14 02:21:44;;;;;;;0.43;0.30;;;2.30;99.90;;;;;;4976498;28;20458;-88
2021/03/14 02:24:15;;;;;;;0.30;0.20;;;2.30;99.90;;;;;;4978233;28;20481;-86
2021/03/14 02:26:52;;;;;;;0.30;0.20;;;2.20;99.90;;;;;;4983397;28;20494;-88
2021/03/14 02:29:20;;;;;;;0.50;0.30;;;2.20;99.90;;;;;;4977694;28;20450;-89
2021/03/14 02:31:49;;;;;;;0.40;0.30;;;2.20;99.90;;;;;;4975446;28;21250;-89
2021/03/14 02:34:20;;;;;;;0.40;0.30;;;2.20;99.90;;;;;;4975087;28;20455;-90
2021/03/14 02:36:48;;;;;;;0.53;0.33;;;2.20;99.90;;;;;;4973269;28;20450;-89
2021/03/14 02:39:16;;;;;;;0.50;0.30;;;2.20;99.90;;;;;;4975294;28;20457;-91
2021/03/14 02:41:43;;;;;;;1.50;0.30;;;2.20;99.90;;;;;;4975192;28;20513;-89
2021/03/14 02:44:14;;;;;;;0.40;0.30;;;2.10;99.90;;;;;;4975162;28;20822;-88
2021/03/14 02:46:41;;;;;;;0.50;0.30;;;2.10;99.90;;;;;;4974776;28;20486;-90
2021/03/14 02:49:09;;;;;;;0.77;0.40;;;2.10;99.90;;;;;;4975423;28;20449;-88
2021/03/14 02:51:38;;;;;;;1.20;0.40;;;2.10;99.90;;;;;;4982988;28;20457;-88
2021/03/14 02:54:05;;;;;;;0.97;0.47;;;2.10;99.90;;;;;;4978226;28;20461;-88
2021/03/14 02:56:31;;;;;;;0.97;0.50;;;2.00;99.90;;;;;;4974883;28;20993;-89
2021/03/14 02:58:59;;;;;;;0.30;0.20;;;2.00;99.90;;;;;;4974790;28;20493;-87
2021/03/14 03:01:27;;;;;;;1.23;0.50;;;2.00;99.90;;;;;;4974759;28;20450;-88
2021/03/14 03:03:56;;;;;;;0.90;0.47;;;1.90;99.90;;;;;;4974695;28;20469;-88
2021/03/14 03:06:22;;;;;;;0.53;0.40;;;1.90;99.90;;;;;;4973578;28;20498;-87
2021/03/14 03:08:49;;;;;;;0.70;0.30;;;1.90;99.90;;;;;;4974621;28;20454;-88
2021/03/14 03:11:17;;;;;;;0.50;0.40;;;1.90;99.90;;;;;;4974509;28;20453;-89
2021/03/14 03:13:44;;;;;;;0.53;0.37;;;1.90;99.90;;;;;;4974434;28;20461;-88
2021/03/14 03:16:14;;;;;;;3.80;1.07;;;1.90;99.90;;;;;;4974717;28;20966;-89
2021/03/14 03:18:42;;;;;;;0.70;0.43;;;1.90;99.90;;;;;;4974439;28;20994;-87
2021/03/14 03:21:10;;;;;;;0.50;0.40;;;1.70;99.90;;;;;;4973505;28;20999;-88
2021/03/14 03:23:37;;;;;;;0.50;0.40;;;1.80;99.90;;;;;;4974560;28;20495;-89
2021/03/14 03:26:04;;;;;;;0.97;0.43;;;1.70;99.90;;;;;;4974215;28;20556;-87
2021/03/14 03:28:31;;;;;;;0.87;0.50;;;1.80;99.90;;;;;;4974269;28;20949;-88
2021/03/14 03:30:57;;;;;;;0.50;0.40;;;1.80;99.90;;;;;;4974413;28;20458;-89
2021/03/14 03:33:24;;;;;;;1.73;0.60;;;1.80;99.90;;;;;;4974146;28;20801;-88
2021/03/14 03:35:51;;;;;;;0.60;0.50;;;1.80;99.90;;;;;;4973229;28;20469;-88
2021/03/14 03:38:18;;;;;;;0.70;0.60;;;1.80;99.90;;;;;;4974253;28;20457;-88
2021/03/14 03:40:44;;;;;;;1.10;0.60;;;1.90;99.90;;;;;;4974303;28;20450;-88
2021/03/14 03:43:15;;;;;;;0.80;0.77;;;1.90;99.90;;;;;;4971705;28;20454;-87
2021/03/14 03:45:44;;;;;;;0.97;0.70;;;1.80;99.90;;;;;;4966894;28;20478;-88
2021/03/14 03:48:15;;;;;;;0.60;0.60;;;1.90;99.90;;;;;;4974120;28;20465;-88
2021/03/14 03:50:44;;;;;;;1.23;0.90;;;1.90;99.90;;;;;;4972587;28;20946;-89
2021/03/14 03:53:13;;;;;;;0.80;0.80;;;1.90;99.90;;;;;;4973831;28;20446;-87
2021/03/14 03:55:41;;;;;;;1.23;0.90;;;1.90;99.90;;;;;;4974338;28;20434;-88
2021/03/14 03:58:10;;;;;;;1.00;0.60;;;1.90;99.90;;;;;;4974114;28;20489;-89
2021/03/14 04:00:37;;;;;;;0.80;0.60;;;1.90;99.90;;;;;;4940137;28;20450;-89
2021/03/14 04:03:05;;;;;;;0.90;0.73;;;1.80;99.90;;;;;;4973560;28;20447;-89
2021/03/14 04:05:32;;;;;;;2.33;0.73;;;1.80;99.90;;;;;;4972955;28;20445;-88
2021/03/14 04:07:58;;;;;;;0.80;0.60;;;1.80;99.90;;;;;;4974423;28;20490;-90
2021/03/14 04:10:28;;;;;;;0.83;0.80;;;1.70;99.90;;;;;;4975766;28;20492;-88
2021/03/14 04:12:56;;;;;;;0.90;0.80;;;1.80;99.90;;;;;;4973930;28;20454;-88
2021/03/14 04:15:24;;;;;;;0.80;0.67;;;1.80;99.90;;;;;;4974186;28;20461;-88
2021/03/14 04:17:51;;;;;;;1.60;0.73;;;1.80;99.90;;;;;;4973839;28;20481;-87
2021/03/14 04:20:20;;;;;;;1.07;0.70;;;1.80;99.90;;;;;;4975191;28;20461;-87
2021/03/14 04:22:52;;;;;;;1.60;1.30;;;1.80;99.90;;;;;;4979173;28;20898;-88
2021/03/14 04:25:19;;;;;;;1.00;0.87;;;1.80;99.90;;;;;;4973790;28;20464;-88
2021/03/14 04:27:49;;;;;;;0.70;0.67;;;1.80;99.90;;;;;;4973863;28;20457;-90
2021/03/14 04:30:17;;;;;;;1.40;1.10;;;1.80;99.90;;;;;;4976101;28;20438;-88
2021/03/14 04:32:44;;;;;;;1.10;1.00;;;1.70;99.90;;;;;;4974056;28;20450;-88
2021/03/14 04:35:12;;;;;;;2.30;1.10;;;1.70;99.90;;;;;;4937098;28;20457;-87
2021/03/14 04:37:39;;;;;;;1.60;0.83;;;1.80;99.90;;;;;;4973455;28;20461;-87
2021/03/14 04:40:08;;;;;;;1.00;0.90;;;1.70;99.90;;;;;;4973715;28;20447;-88
2021/03/14 04:42:36;;;;;;;0.70;0.70;;;1.70;99.90;;;;;;4973800;28;20453;-87
2021/03/14 04:45:06;;;;;;;0.70;0.70;;;1.70;99.90;;;;;;4973955;28;20446;-87
2021/03/14 04:47:32;;;;;;;0.80;0.53;;;1.70;99.90;;;;;;4973530;28;20508;-87
2021/03/14 04:49:59;;;;;;;0.70;0.60;;;1.80;99.90;;;;;;4972467;28;20472;-87
2021/03/14 04:52:26;;;;;;;0.60;0.50;;;1.80;99.90;;;;;;4973485;28;20465;-88
2021/03/14 04:54:54;;;;;;;3.13;0.50;;;1.80;99.90;;;;;;4973463;28;20454;-86
2021/03/14 04:57:20;;;;;;;2.43;0.83;;;1.80;99.90;;;;;;4973019;28;20488;-88
2021/03/14 04:59:48;;;;;;;1.00;0.50;;;1.80;99.90;;;;;;4977267;28;20450;-88
2021/03/14 05:02:16;;;;;;;3.70;0.80;;;1.80;99.90;;;;;;4976893;28;20481;-87
2021/03/14 05:04:43;;;;;;;1.13;0.80;;;1.80;99.90;;;;;;4975852;28;20461;-89
2021/03/14 05:07:11;;;;;;;1.63;0.50;;;1.70;99.90;;;;;;4976904;28;21009;-89
2021/03/14 05:09:39;;;;;;;0.97;0.50;;;1.70;99.90;;;;;;4976930;28;20458;-89
2021/03/14 05:12:07;;;;;;;0.50;0.50;;;1.80;99.90;;;;;;4975260;28;20973;-88
2021/03/14 05:14:35;;;;;;;1.70;0.50;;;1.80;99.90;;;;;;4976691;28;20438;-87
2021/03/14 05:17:02;;;;;;;0.40;0.40;;;1.80;99.90;;;;;;4976552;28;20469;-87
2021/03/14 05:19:30;;;;;;;0.43;0.30;;;1.80;99.90;;;;;;4975792;28;20945;-89
2021/03/14 05:21:57;;;;;;;0.40;0.27;;;1.80;99.90;;;;;;4976722;28;20452;-88
2021/03/14 05:24:25;;;;;;;1.37;0.37;;;1.80;99.90;;;;;;4978726;28;20446;-89
2021/03/14 05:26:51;;;;;;;0.70;0.50;;;1.80;99.90;;;;;;4976265;28;20501;-88
2021/03/14 05:29:18;;;;;;;1.20;0.57;;;1.70;99.90;;;;;;4976320;28;20946;-88
2021/03/14 05:31:45;;;;;;;0.40;0.40;;;1.80;99.90;;;;;;4976478;28;20457;-88
2021/03/14 05:34:15;;;;;;;0.40;0.30;;;1.80;99.90;;;;;;4976551;28;20477;-88
2021/03/14 05:36:45;;;;;;;0.50;0.40;;;1.70;99.90;;;;;;4973864;28;20445;-91
2021/03/14 05:39:12;;;;;;;0.60;0.40;;;1.80;99.90;;;;;;4976506;28;20442;-88
2021/03/14 05:41:39;;;;;;;0.80;0.50;;;1.80;99.90;;;;;;4976246;28;20446;-87
2021/03/14 05:44:07;;;;;;;1.20;0.40;;;1.80;99.90;;;;;;4976301;28;20450;-87
2021/03/14 05:46:34;;;;;;;0.70;0.53;;;1.80;99.90;;;;;;4976264;28;20495;-90
2021/03/14 05:49:01;;;;;;;0.40;0.30;;;1.90;99.90;;;;;;4978300;28;20462;-86
2021/03/14 05:51:29;;;;;;;0.43;0.40;;;2.00;99.90;;;;;;4985263;28;20460;-88
2021/03/14 05:53:57;;;;;;;0.50;0.40;;;1.80;99.90;;;;;;4978660;28;20464;-88
2021/03/14 05:56:25;;;;;;;0.63;0.40;;;1.90;99.90;;;;;;4976281;28;20516;-88
2021/03/14 05:58:52;;;;;;;0.53;0.40;;;1.90;99.90;;;;;;4976002;28;20489;-87
2021/03/14 06:01:22;;;;;;;0.87;0.40;;;1.90;99.90;;;;;;4976247;28;20458;-88
2021/03/14 06:03:49;;;;;;;1.30;1.20;;;1.90;99.90;;;;;;4974702;28;20451;-90
2021/03/14 06:06:15;;;;;;;1.00;0.60;;;1.90;99.90;;;;;;4974882;28;20490;-89
2021/03/14 06:08:42;;;;;;;2.60;0.83;;;1.90;99.90;;;;;;4975305;28;20450;-87
2021/03/14 06:11:11;;;;;;;3.07;0.73;;;2.00;99.90;;;;;;4976052;28;20435;-91
2021/03/14 06:13:38;;;;;;;4.60;0.73;;;2.00;99.90;;;;;;4975632;28;20457;-88
2021/03/14 06:16:06;;;;;;;0.87;0.67;;;2.00;99.90;;;;;;4975804;28;20536;-88
2021/03/14 06:18:33;;;;;;;0.93;0.80;;;2.00;99.90;;;;;;4941806;28;20454;-88
2021/03/14 06:21:00;;;;;;;0.80;0.67;;;2.00;99.90;;;;;;4974653;28;20454;-88
2021/03/14 06:23:27;;;;;;;1.97;1.07;;;2.00;99.90;;;;;;4975833;28;20825;-88
2021/03/14 06:25:55;;;;;;;5.60;1.20;;;2.00;99.90;;;;;;4973911;28;20513;-88
2021/03/14 06:28:33;;;;;;;0.87;0.87;;;2.00;99.90;;;;;;4975537;28;20454;-88
2021/03/14 06:31:15;;;;;;;0.57;0.40;;;2.10;99.90;;;;;;4977863;28;20544;-88
2021/03/14 06:33:42;;;;;;;0.47;0.47;;;2.10;99.90;;;;;;4975437;28;20450;-88
2021/03/14 06:36:12;;;;;;;2.43;1.20;;;2.10;99.90;;;;;;4974580;28;20512;-89
2021/03/14 06:38:39;;;;;;;1.00;0.67;;;2.10;99.90;;;;;;4975509;28;20461;-90
2021/03/14 06:41:14;;;;;;;2.53;1.30;;;2.20;99.90;;;;;;4975355;28;20458;-88
2021/03/14 06:43:44;;;;;;;1.03;0.90;;;2.10;99.90;;;;;;4975557;28;20454;-88
2021/03/14 06:46:25;;;;;;;1.20;0.90;;;2.20;99.90;;;;;;4974857;28;20490;-90
2021/03/14 06:49:05;;;;;;;1.73;1.40;;;2.30;99.90;;;;;;4975684;28;20454;-88
2021/03/14 06:51:32;;;;;;;1.90;1.10;;;2.40;99.90;;;;;;4972673;28;20456;-89
2021/03/14 06:54:17;;;;;;;0.80;0.80;;;2.70;99.90;;;;;;4975528;28;20454;-89
2021/03/14 06:57:00;;;;;;;2.70;0.90;;;2.70;99.90;;;;;;4976374;28;20453;-90
2021/03/14 06:59:28;;;;;;;2.30;0.77;;;2.80;99.90;;;;;;4982755;28;20446;-91
2021/03/14 07:01:58;;;;;;;1.90;0.80;;;2.80;99.90;;;;;;4945088;28;20816;-90
2021/03/14 07:04:45;;;;;;;1.70;0.93;;;2.80;99.90;;;;;;4974801;28;20474;-90
2021/03/14 07:07:29;;;;;;;2.47;0.90;;;2.90;99.90;;;;;;4973462;28;20481;-88
2021/03/14 07:10:00;;;;;;;3.77;0.93;;;3.00;99.90;;;;;;4961389;28;20443;-88
2021/03/14 07:12:29;;;;;;;3.37;0.80;;;3.00;99.90;;;;;;4974431;28;20450;-91
2021/03/14 07:14:57;;;;;;;0.93;0.70;;;2.90;99.90;;;;;;4975538;28;20441;-87
2021/03/14 07:17:32;;;;;;;1.00;0.77;;;2.90;99.90;;;;;;4980267;28;20456;-89
2021/03/14 07:20:06;;;;;;;5.40;1.10;;;3.00;99.90;;;;;;4981765;28;20470;-88
2021/03/14 07:22:33;;;;;;;4.30;1.13;;;3.00;99.90;;;;;;4974532;28;20449;-88
2021/03/14 07:24:59;;;;;;;3.20;1.10;;;2.80;99.90;;;;;;4975267;28;20454;-90
2021/03/14 07:27:29;;;;;;;1.53;0.93;;;3.00;99.90;;;;;;4972644;28;20577;-93
2021/03/14 07:29:57;;;;;;;3.50;1.00;;;3.00;99.90;;;;;;4974944;28;20473;-91
2021/03/14 07:32:25;;;;;;;2.23;1.00;;;3.10;99.90;;;;;;4975185;28;20835;-89
2021/03/14 07:34:52;;;;;;;3.80;0.80;;;3.60;99.90;;;;;;4973373;28;20465;-89
2021/03/14 07:37:20;;;;;;;2.83;0.57;;;3.50;99.90;;;;;;4976584;28;20461;-90
2021/03/14 07:39:47;;;;;;;0.87;0.60;;;3.90;99.90;;;;;;4975800;28;20910;-91
2021/03/14 07:42:18;;;;;;;1.77;0.60;;;3.90;99.90;;;;;;4975325;28;20878;-90
2021/03/14 07:44:45;;;;;;;1.90;1.13;;;3.90;99.90;;;;;;4975644;28;20453;-89
2021/03/14 07:47:15;;;;;;;4.20;0.90;;;4.70;99.90;;;;;;4975339;28;20490;-89
2021/03/14 07:49:45;;;;;;;1.43;0.83;;;3.50;99.90;;;;;;4976557;28;20454;-89
2021/03/14 07:52:20;;;;;;;3.80;1.47;;;3.30;99.90;;;;;;4983193;28;20442;-90
2021/03/14 07:54:50;;;;;;;5.90;0.93;;;3.10;99.90;;;;;;4979070;28;20450;-91
2021/03/14 07:57:22;;;;;;;2.73;1.13;;;3.00;99.90;;;;;;4975971;28;20490;-92
2021/03/14 07:59:48;;;;;;;1.67;1.10;;;2.90;99.90;;;;;;4975180;28;20458;-91
2021/03/14 08:02:30;;;;;;;2.90;1.17;;;2.90;99.90;;;;;;4975555;28;20466;-89
2021/03/14 08:04:59;;;;;;;4.03;0.70;;;2.80;99.90;;;;;;4975794;28;20434;-90
2021/03/14 08:07:42;;;;;;;2.30;0.90;;;2.80;99.90;;;;;;4977379;28;20525;-91
2021/03/14 08:10:10;;;;;;;4.20;1.10;;;2.90;99.90;;;;;;4974316;28;20477;-88
2021/03/14 08:12:41;;;;;;;4.93;1.70;;;3.00;99.90;;;;;;4974656;28;20505;-88
2021/03/14 08:15:21;;;;;;;6.27;1.30;;;3.10;99.90;;;;;;4974275;28;20461;-89
2021/03/14 08:17:49;;;;;;;0.50;0.50;;;3.20;99.90;;;;;;4973276;28;20449;-88
2021/03/14 08:20:34;;;;;;;2.53;1.07;;;3.40;99.90;;;;;;4972873;28;20799;-88
2021/03/14 08:23:02;;;;;;;1.77;1.20;;;3.30;99.90;;;;;;4970803;28;20461;-88
2021/03/14 08:25:30;;;;;;;2.87;0.90;;;3.40;99.90;;;;;;4973720;28;20505;-87
2021/03/14 08:27:59;;;;;;;3.40;0.63;;;3.60;99.90;;;;;;4973569;28;20497;-90
2021/03/14 08:30:46;;;;;;;4.20;1.20;;;4.10;99.90;;;;;;4971137;28;20466;-91
2021/03/14 08:33:43;;;;;;;1.23;0.67;;;4.40;99.90;;;;;;4954547;28;20483;-88
2021/03/14 08:36:12;;;;;;;1.93;1.03;;;4.00;99.90;;;;;;4952012;29;20455;-88
2021/03/14 08:38:50;;;;;;;4.70;1.07;;;4.10;99.90;;;;;;4955828;29;20450;-88
2021/03/14 08:41:29;;;;;;;2.87;1.50;;;3.90;99.90;;;;;;4956095;29;20451;-88
2021/03/14 08:43:59;;;;;;;5.80;1.67;;;3.90;99.90;;;;;;4956134;29;20862;-88
2021/03/14 08:47:01;;;;;;;3.30;1.83;;;4.20;99.90;;;;;;4956636;29;20834;-91
2021/03/14 08:49:29;;;;;;;0.57;0.40;;;4.50;99.90;;;;;;4956158;29;21039;-89
2021/03/14 08:51:56;;;;;;;1.10;0.73;;;4.70;99.90;;;;;;4955707;29;20443;-90
2021/03/14 08:54:27;;;;;;;3.00;1.07;;;4.50;99.90;;;;;;4938717;29;20448;-90
2021/03/14 08:56:55;;;;;;;2.77;0.97;;;4.50;99.90;;;;;;4938699;29;20455;-88
2021/03/14 08:59:24;;;;;;;5.40;1.57;;;4.60;99.90;;;;;;4958016;28;20450;-89
2021/03/14 09:01:53;;;;;;;1.63;0.83;;;4.30;99.90;;;;;;4958740;28;20461;-92
2021/03/14 09:04:21;;;;;;;4.37;1.07;;;4.40;99.90;;;;;;4957911;29;20461;-90
2021/03/14 09:06:48;;;;;;;1.53;0.93;;;4.80;99.90;;;;;;4957068;28;20541;-89
2021/03/14 09:09:18;;;;;;;0.50;0.30;;;4.40;99.90;;;;;;4958341;29;20463;-89
2021/03/14 09:11:46;;;;;;;2.33;0.90;;;4.10;99.90;;;;;;4958972;29;20890;-89
2021/03/14 09:14:29;;;;;;;2.73;0.80;;;4.10;99.90;;;;;;4959994;29;20455;-86
2021/03/14 09:16:57;;;;;;;2.40;0.60;;;4.30;99.90;;;;;;4966858;29;20455;-89
2021/03/14 09:19:29;;;;;;;1.20;0.97;;;4.20;99.90;;;;;;4958462;29;20460;-91
2021/03/14 09:21:58;;;;;;;1.20;0.73;;;4.40;99.90;;;;;;4957480;29;20505;-91
2021/03/14 09:24:26;;;;;;;0.90;0.67;;;4.60;99.90;;;;;;4956118;29;20455;-91
2021/03/14 09:27:01;;;;;;;4.57;1.07;;;4.20;99.90;;;;;;4958778;29;20506;-92
2021/03/14 09:29:40;;;;;;;0.40;0.30;;;4.20;99.90;;;;;;4957555;29;20537;-91
2021/03/14 09:32:16;;;;;;;1.90;0.80;;;4.20;99.90;;;;;;4958226;29;20908;-90
2021/03/14 09:34:42;;;;;;;1.10;0.60;;;4.20;99.90;;;;;;4956763;29;20451;-90
2021/03/14 09:37:10;;;;;;;5.73;0.80;;;4.10;99.90;;;;;;4959912;29;20459;-92
2021/03/14 09:39:37;;;;;;;0.97;0.60;;;4.20;99.90;;;;;;4961867;29;20454;-92
2021/03/14 09:42:03;;;;;;;1.43;0.67;;;4.40;99.90;;;;;;4957764;29;20462;-91
2021/03/14 09:44:30;;;;;;;2.70;0.90;;;;;;;;;;4957764;28;20451;-92
2021/03/14 09:46:57;;;;;;;0.47;0.43;;;;;;;;;;4957623;28;20559;-90
2021/03/14 09:49:24;;;;;;;0.90;0.73;;;;;;;;;;4957794;28;20462;-86
2021/03/14 09:51:52;;;;;;;1.80;0.80;;;8.30;99.90;;;;;;4971618;28;20463;-91
2021/03/14 09:54:20;;;;;;;1.30;0.70;;;8.40;99.90;;;;;;4959083;29;20490;-90
2021/03/14 09:56:53;;;;;;;0.67;0.60;;;8.40;99.90;;;;;;4957200;29;20455;-91
2021/03/14 09:59:22;;;;;;;0.80;0.50;;;7.10;99.90;;;;;;4957470;29;20453;-90
2021/03/14 10:01:49;;;;;;;0.83;0.50;;;5.80;99.90;;;;;;4959388;29;20471;-92
2021/03/14 10:04:16;;;;;;;1.00;0.80;;;;;;;;;;4957400;29;20951;-92
2021/03/14 10:06:47;;;;;;;2.60;0.87;;;;;;;;;;4955927;28;20475;-90
2021/03/14 10:09:22;;;;;;;1.57;1.27;;;5.30;99.90;;;;;;4956936;28;20435;-91
2021/03/14 10:11:49;;;;;;;2.50;1.60;;;;;;;;;;4956931;29;20806;-90
2021/03/14 10:14:17;;;;;;;2.40;1.20;;;5.10;99.90;;;;;;4956430;28;20440;-91
2021/03/14 10:16:43;;;;;;;1.83;0.67;;;;;;;;;;4956282;29;20455;-90
2021/03/14 10:19:10;;;;;;;1.33;0.50;;;5.20;99.90;;;;;;4956651;28;20802;-91
2021/03/14 10:21:44;;;;;;;1.13;0.57;;;5.10;99.90;;;;;;4955751;29;20509;-90
2021/03/14 10:24:23;;;;;;;3.63;0.87;;;5.00;99.90;;;;;;4956311;29;20454;-85
2021/03/14 10:26:54;;;;;;;1.90;0.90;;;4.90;99.90;;;;;;4955717;29;20486;-90
2021/03/14 10:29:21;;;;;;;1.23;0.67;;;4.90;99.90;;;;;;4956443;29;20448;-85
2021/03/14 10:31:48;;;;;;;1.47;0.73;;;4.90;99.90;;;;;;4956328;28;20451;-89
2021/03/14 10:34:18;;;;;;;2.27;0.50;;;5.00;99.90;;;;;;4955704;29;20451;-90
2021/03/14 10:36:45;;;;;;;0.90;0.70;;;4.90;99.90;;;;;;4954982;29;20439;-91
2021/03/14 10:39:11;;;;;;;1.07;0.50;;;5.00;99.90;;;;;;4955761;29;20452;-88
2021/03/14 10:41:44;;;;;;;0.90;0.70;;;4.90;99.90;;;;;;4955905;29;20458;-90
2021/03/14 10:44:11;;;;;;;3.30;0.90;;;4.90;99.90;;;;;;4956046;29;20463;-90
2021/03/14 10:46:39;;;;;;;0.97;0.63;;;5.00;99.90;;;;;;4955731;29;20526;-90
2021/03/14 10:49:08;;;;;;;3.23;0.77;;;5.00;99.90;;;;;;4955726;29;20451;-91
2021/03/14 10:51:36;;;;;;;4.50;1.03;;;5.20;99.90;;;;;;4954706;29;20829;-88
2021/03/14 10:54:04;;;;;;;1.47;0.50;;;5.20;99.90;;;;;;4953493;29;20443;-89
2021/03/14 10:56:38;;;;;;;1.93;0.73;;;5.10;99.90;;;;;;4955309;28;20454;-90
2021/03/14 10:59:06;;;;;;;0.83;0.70;;;5.50;99.90;;;;;;4955934;29;20486;-88
2021/03/14 11:01:36;;;;;;;3.07;1.00;;;5.50;99.90;;;;;;4955652;29;20549;-90
2021/03/14 11:04:07;;;;;;;1.27;0.70;;;6.50;99.90;;;;;;4955957;29;20477;-91
2021/03/14 11:06:34;;;;;;;0.40;0.30;;;6.30;99.90;;;;;;4955275;29;20490;-91
2021/03/14 11:09:03;;;;;;;2.70;0.50;;;8.30;99.90;;;;;;4956018;28;20532;-92
2021/03/14 11:11:39;;;;;;;3.27;1.23;;;6.20;99.90;;;;;;4962836;28;20453;-88
2021/03/14 11:14:26;;;;;;;0.87;0.67;;;6.10;99.90;;;;;;4963198;29;20465;-89
2021/03/14 11:17:06;;;;;;;1.37;0.67;;;6.00;99.90;;;;;;4956443;29;20455;-92
2021/03/14 11:19:33;;;;;;;1.80;0.83;;;6.00;99.90;;;;;;4955305;29;20443;-91
2021/03/14 11:21:59;;;;;;;1.57;0.70;;;6.10;99.90;;;;;;4965714;29;20455;-90
2021/03/14 11:24:26;;;;;;;1.37;0.70;;;6.00;99.90;;;;;;4956059;29;20447;-91
2021/03/14 11:26:52;;;;;;;2.57;0.63;;;6.00;99.90;;;;;;4955055;29;20509;-92
2021/03/14 11:29:19;;;;;;;2.97;1.17;;;6.20;99.90;;;;;;4956078;29;20452;-88
2021/03/14 11:31:46;;;;;;;0.50;0.40;;;7.10;99.90;;;;;;4955349;29;20459;-91
2021/03/14 11:34:13;;;;;;;4.63;1.07;;;7.80;99.90;;;;;;4961689;29;20443;-87
2021/03/14 11:36:39;;;;;;;0.50;0.40;;;8.00;99.90;;;;;;4959734;29;20456;-92
2021/03/14 11:39:06;;;;;;;1.93;0.53;;;7.30;99.90;;;;;;4955424;29;20827;-94
2021/03/14 11:41:33;;;;;;;1.37;0.73;;;7.20;99.90;;;;;;4956898;29;20456;-89
2021/03/14 11:43:59;;;;;;;0.67;0.50;;;6.60;99.90;;;;;;4956220;29;20454;-90
2021/03/14 11:46:26;;;;;;;1.53;0.50;;;7.20;99.90;;;;;;4955003;29;20514;-91
2021/03/14 11:48:53;;;;;;;1.80;0.50;;;7.00;99.90;;;;;;4955000;29;20451;-88
2021/03/14 11:51:20;;;;;;;1.80;0.50;;;7.90;99.90;;;;;;4954220;29;20997;-89
2021/03/14 11:53:46;;;;;;;1.63;0.60;;;7.30;99.90;;;;;;4954730;28;20462;-89
2021/03/14 11:56:13;;;;;;;2.83;1.10;;;7.00;99.90;;;;;;4943520;28;20555;-88
2021/03/14 11:58:39;;;;;;;0.70;0.40;;;6.60;99.90;;;;;;4984479;28;20486;-87
2021/03/14 12:01:08;;;;;;;2.57;0.90;;;6.40;99.90;;;;;;4975530;28;20470;-88
2021/03/14 12:03:34;;;;;;;0.70;0.50;;;6.50;99.90;;;;;;4975588;28;20458;-87
2021/03/14 12:06:02;;;;;;;5.50;1.33;;;6.20;99.90;;;;;;4972146;28;20814;-88
2021/03/14 12:08:28;;;;;;;2.07;0.47;;;6.00;99.90;;;;;;4975625;28;20953;-89
2021/03/14 12:10:55;;;;;;;3.60;0.93;;;;;;;;;;4984408;28;20460;-89
2021/03/14 12:13:21;;;;;;;1.90;0.87;;;5.50;99.90;;;;;;4997711;28;20449;-87
2021/03/14 12:15:47;;;;;;;4.13;0.80;;;5.40;99.90;;;;;;4998303;28;20511;-89
2021/03/14 12:18:14;;;;;;;6.60;1.10;;;5.40;99.90;;;;;;4999118;28;20449;-89
2021/03/14 12:20:40;;;;;;;0.60;0.40;;;5.10;99.90;;;;;;4996301;28;20457;-87
2021/03/14 12:23:09;;;;;;;1.53;0.70;;;5.60;99.90;;;;;;4996810;28;20503;-86
2021/03/14 12:25:35;;;;;;;1.30;0.60;;;4.90;99.90;;;;;;4977472;28;20450;-87
2021/03/14 12:28:01;;;;;;;4.07;1.70;;;5.00;99.90;;;;;;4977356;28;21020;-89
2021/03/14 12:30:28;;;;;;;4.10;0.67;;;4.80;99.90;;;;;;4977610;28;20461;-87
2021/03/14 12:32:54;;;;;;;1.27;0.47;;;4.50;99.90;;;;;;4977425;28;21109;-89
2021/03/14 12:35:21;;;;;;;1.70;0.83;;;4.40;99.90;;;;;;4973808;28;20450;-87
2021/03/14 12:37:47;;;;;;;1.27;0.70;;;4.40;99.90;;;;;;4978153;28;20449;-89
2021/03/14 12:40:15;;;;;;;4.33;1.17;;;4.20;99.90;;;;;;4977399;28;20446;-91
2021/03/14 12:42:41;;;;;;;4.23;0.93;;;4.10;99.90;;;;;;4992688;28;20442;-88
2021/03/14 12:45:09;;;;;;;1.63;1.13;;;4.10;99.90;;;;;;4992867;28;20449;-90
2021/03/14 12:47:35;;;;;;;1.73;0.60;;;4.10;99.90;;;;;;4977988;28;20501;-88
2021/03/14 12:50:02;;;;;;;1.67;1.17;;;4.00;99.90;;;;;;4982188;28;20447;-87
2021/03/14 12:52:28;;;;;;;1.47;0.90;;;3.90;99.90;;;;;;4984016;28;20952;-91
2021/03/14 12:54:54;;;;;;;4.30;1.17;;;4.00;99.90;;;;;;4977592;28;20941;-90
2021/03/14 12:57:21;;;;;;;3.00;0.80;;;3.70;99.90;;;;;;4976068;28;21048;-88
2021/03/14 12:59:48;;;;;;;3.10;1.30;;;3.60;99.90;;;;;;4977941;28;20497;-89
2021/03/14 13:02:14;;;;;;;2.20;1.13;;;3.60;99.90;;;;;;4977517;28;20470;-89
2021/03/14 13:04:40;;;;;;;5.00;1.40;;;3.60;99.90;;;;;;4976477;28;20471;-89
2021/03/14 13:07:07;;;;;;;6.53;1.20;;;3.70;99.90;;;;;;4976845;28;20517;-88
2021/03/14 13:09:33;;;;;;;2.63;1.33;;;3.80;99.90;;;;;;4976827;28;20450;-89